createdAt,value
2019-04-28T00:00:51.057Z,0.00
2019-04-28T00:01:51.300Z,0.00
2019-04-28T00:02:50.764Z,0.00
2019-04-28T00:03:51.618Z,0.00
2019-04-28T00:04:51.439Z,0.00
2019-04-28T00:05:51.404Z,0.00
2019-04-28T00:06:51.519Z,0.00
2019-04-28T00:07:50.578Z,0.00
2019-04-28T00:08:51.800Z,0.00
2019-04-28T00:09:51.114Z,0.00
2019-04-28T00:10:53.137Z,0.00
2019-04-28T00:11:51.722Z,0.00
2019-04-28T00:12:51.095Z,0.00
2019-04-28T00:13:51.882Z,0.00
2019-04-28T00:14:51.659Z,0.00
2019-04-28T00:15:51.634Z,0.00
2019-04-28T00:16:51.180Z,0.00
2019-04-28T00:17:51.602Z,0.00
2019-04-28T00:18:51.078Z,0.00
2019-04-28T00:19:51.514Z,0.00
2019-04-28T00:20:50.984Z,0.00
2019-04-28T00:21:51.671Z,0.00
2019-04-28T00:22:51.548Z,0.00
2019-04-28T00:23:51.237Z,0.00
2019-04-28T00:24:51.489Z,0.00
2019-04-28T00:25:51.462Z,0.00
2019-04-28T00:26:51.928Z,0.00
2019-04-28T00:27:51.577Z,0.00
2019-04-28T00:28:51.315Z,0.00
2019-04-28T00:29:51.799Z,0.00
2019-04-28T00:30:51.701Z,0.00
2019-04-28T00:31:51.284Z,0.00
2019-04-28T00:32:51.772Z,0.00
2019-04-28T00:33:51.440Z,0.00
2019-04-28T00:34:51.131Z,0.00
2019-04-28T00:35:51.559Z,0.00
2019-04-28T00:36:51.229Z,0.00
2019-04-28T00:37:51.664Z,0.00
2019-04-28T00:38:51.472Z,0.00
2019-04-28T00:39:50.990Z,0.00
2019-04-28T00:40:51.018Z,0.00
2019-04-28T00:41:51.639Z,0.00
2019-04-28T00:42:51.205Z,0.00
2019-04-28T00:43:51.840Z,0.00
2019-04-28T00:44:51.514Z,0.00
2019-04-28T00:45:51.287Z,0.00
2019-04-28T00:46:51.179Z,0.00
2019-04-28T00:47:51.020Z,0.00
2019-04-28T00:48:50.886Z,0.00
2019-04-28T00:49:51.768Z,0.00
2019-04-28T00:50:51.874Z,0.00
2019-04-28T00:51:50.906Z,0.00
2019-04-28T00:52:51.684Z,0.00
2019-04-28T00:53:50.932Z,0.00
2019-04-28T00:54:50.090Z,0.00
2019-04-28T00:55:51.620Z,0.00
2019-04-28T00:56:51.591Z,0.00
2019-04-28T00:57:50.951Z,0.00
2019-04-28T00:58:51.587Z,0.00
2019-04-28T00:59:56.714Z,0.00
2019-04-28T01:00:51.387Z,0.00
2019-04-28T01:01:51.277Z,0.00
2019-04-28T01:02:50.995Z,0.00
2019-04-28T01:03:51.871Z,0.00
2019-04-28T01:04:51.430Z,0.00
2019-04-28T01:05:50.831Z,0.00
2019-04-28T01:06:51.805Z,0.00
2019-04-28T01:07:51.089Z,0.00
2019-04-28T01:08:51.557Z,0.00
2019-04-28T01:09:51.517Z,0.00
2019-04-28T01:10:50.828Z,0.00
2019-04-28T01:11:51.137Z,0.00
2019-04-28T01:12:50.956Z,0.00
2019-04-28T01:13:51.653Z,0.00
2019-04-28T01:14:52.196Z,0.00
2019-04-28T01:15:49.980Z,0.00
2019-04-28T01:16:51.483Z,0.00
2019-04-28T01:17:49.970Z,0.00
2019-04-28T01:18:50.181Z,0.00
2019-04-28T01:19:51.375Z,0.00
2019-04-28T01:20:49.953Z,0.00
2019-04-28T01:21:50.297Z,0.00
2019-04-28T01:22:49.948Z,0.00
2019-04-28T01:23:50.195Z,0.00
2019-04-28T01:24:49.935Z,0.00
2019-04-28T01:25:50.094Z,0.00
2019-04-28T01:26:50.832Z,0.00
2019-04-28T01:27:50.571Z,0.00
2019-04-28T01:28:49.915Z,0.00
2019-04-28T01:29:51.620Z,0.00
2019-04-28T01:30:50.118Z,0.00
2019-04-28T01:31:49.898Z,0.00
2019-04-28T01:32:49.904Z,0.00
2019-04-28T01:33:50.158Z,0.00
2019-04-28T01:34:49.931Z,0.00
2019-04-28T01:35:49.883Z,0.00
2019-04-28T01:36:51.594Z,0.00
2019-04-28T01:37:50.546Z,0.00
2019-04-28T01:38:50.164Z,0.00
2019-04-28T01:39:49.877Z,0.00
2019-04-28T01:40:50.021Z,0.00
2019-04-28T01:41:49.848Z,0.00
2019-04-28T01:42:50.059Z,0.00
2019-04-28T01:43:49.838Z,0.00
2019-04-28T01:44:49.832Z,0.00
2019-04-28T01:45:50.298Z,0.00
2019-04-28T01:46:49.823Z,0.00
2019-04-28T01:47:50.378Z,0.00
2019-04-28T01:48:49.833Z,0.00
2019-04-28T01:49:50.133Z,0.00
2019-04-28T01:50:50.093Z,0.00
2019-04-28T01:51:50.281Z,0.00
2019-04-28T01:52:51.426Z,0.00
2019-04-28T01:53:50.481Z,0.00
2019-04-28T01:54:50.215Z,0.00
2019-04-28T01:55:49.776Z,0.00
2019-04-28T01:56:50.259Z,0.00
2019-04-28T01:57:49.899Z,0.00
2019-04-28T01:58:49.963Z,0.00
2019-04-28T01:59:50.047Z,0.00
2019-04-28T02:00:50.555Z,0.00
2019-04-28T02:01:49.957Z,0.00
2019-04-28T02:02:50.494Z,0.00
2019-04-28T02:03:50.250Z,0.00
2019-04-28T02:04:49.984Z,0.00
2019-04-28T02:05:50.166Z,0.00
2019-04-28T02:06:49.810Z,0.00
2019-04-28T02:07:50.609Z,0.00
2019-04-28T02:08:51.248Z,0.00
2019-04-28T02:09:49.705Z,0.00
2019-04-28T02:10:50.115Z,0.00
2019-04-28T02:11:49.823Z,0.00
2019-04-28T02:12:50.334Z,0.00
2019-04-28T02:13:49.770Z,0.00
2019-04-28T02:14:49.978Z,0.00
2019-04-28T02:15:50.059Z,0.00
2019-04-28T02:16:50.406Z,0.00
2019-04-28T02:17:51.319Z,0.00
2019-04-28T02:18:49.745Z,0.00
2019-04-28T02:19:51.164Z,0.00
2019-04-28T02:20:51.076Z,0.00
2019-04-28T02:21:49.645Z,0.00
2019-04-28T02:22:50.090Z,0.00
2019-04-28T02:23:51.396Z,0.00
2019-04-28T02:24:50.487Z,0.00
2019-04-28T02:25:49.808Z,0.00
2019-04-28T02:26:52.255Z,0.00
2019-04-28T02:27:49.917Z,0.00
2019-04-28T02:28:50.431Z,0.00
2019-04-28T02:29:49.969Z,0.00
2019-04-28T02:30:53.568Z,0.00
2019-04-28T02:31:51.093Z,0.00
2019-04-28T02:32:51.872Z,0.00
2019-04-28T02:33:50.463Z,0.00
2019-04-28T02:34:50.664Z,0.00
2019-04-28T02:35:51.107Z,0.00
2019-04-28T02:36:50.575Z,0.00
2019-04-28T02:37:50.322Z,0.00
2019-04-28T02:38:51.311Z,0.00
2019-04-28T02:39:50.522Z,0.00
2019-04-28T02:40:50.403Z,0.00
2019-04-28T02:41:51.152Z,0.00
2019-04-28T02:42:51.945Z,0.00
2019-04-28T02:43:50.989Z,0.00
2019-04-28T02:44:50.388Z,0.00
2019-04-28T02:45:53.040Z,0.00
2019-04-28T02:46:50.757Z,0.00
2019-04-28T02:47:52.053Z,0.00
2019-04-28T02:48:50.836Z,0.00
2019-04-28T02:49:50.362Z,0.00
2019-04-28T02:50:50.945Z,0.00
2019-04-28T02:51:50.548Z,0.00
2019-04-28T02:52:51.824Z,0.00
2019-04-28T02:53:51.148Z,0.00
2019-04-28T02:54:50.722Z,0.00
2019-04-28T02:55:51.342Z,0.00
2019-04-28T02:56:51.012Z,0.00
2019-04-28T02:57:51.594Z,0.00
2019-04-28T02:58:51.082Z,0.00
2019-04-28T02:59:50.859Z,0.00
2019-04-28T03:01:02.595Z,0.00
2019-04-28T03:01:50.960Z,0.00
2019-04-28T03:02:51.392Z,0.00
2019-04-28T03:03:50.736Z,0.00
2019-04-28T03:04:50.654Z,0.00
2019-04-28T03:05:51.239Z,0.00
2019-04-28T03:06:51.642Z,0.00
2019-04-28T03:07:51.529Z,0.00
2019-04-28T03:08:50.606Z,0.00
2019-04-28T03:09:51.731Z,0.00
2019-04-28T03:10:50.938Z,0.00
2019-04-28T03:11:51.181Z,0.00
2019-04-28T03:12:51.634Z,0.00
2019-04-28T03:13:51.156Z,0.00
2019-04-28T03:14:50.519Z,0.00
2019-04-28T03:15:51.644Z,0.00
2019-04-28T03:16:50.944Z,0.00
2019-04-28T03:17:52.451Z,0.00
2019-04-28T03:18:51.379Z,0.00
2019-04-28T03:19:51.745Z,0.00
2019-04-28T03:20:51.547Z,0.00
2019-04-28T03:21:51.062Z,0.00
2019-04-28T03:22:51.095Z,0.00
2019-04-28T03:23:51.310Z,0.00
2019-04-28T03:24:51.056Z,0.00
2019-04-28T03:25:50.632Z,0.00
2019-04-28T03:26:50.944Z,0.00
2019-04-28T03:27:50.924Z,0.00
2019-04-28T03:28:51.367Z,0.00
2019-04-28T03:29:50.405Z,0.00
2019-04-28T03:30:53.324Z,0.00
2019-04-28T03:32:13.635Z,0.00
2019-04-28T03:32:58.454Z,0.00
2019-04-28T03:33:55.210Z,0.00
2019-04-28T03:34:53.946Z,0.00
2019-04-28T03:35:53.101Z,0.00
2019-04-28T03:36:51.718Z,0.00
2019-04-28T03:37:51.274Z,0.00
2019-04-28T03:38:50.975Z,0.00
2019-04-28T03:39:50.452Z,0.00
2019-04-28T03:40:51.243Z,0.00
2019-04-28T03:41:50.243Z,0.00
2019-04-28T03:42:51.339Z,4.00
2019-04-28T03:43:51.323Z,4.00
2019-04-28T03:44:51.107Z,0.00
2019-04-28T03:45:50.319Z,4.00
2019-04-28T03:46:51.217Z,4.00
2019-04-28T03:47:50.930Z,4.00
2019-04-28T03:48:50.898Z,4.00
2019-04-28T03:49:50.561Z,4.00
2019-04-28T03:50:51.395Z,8.00
2019-04-28T03:51:50.624Z,8.00
2019-04-28T03:52:51.181Z,8.00
2019-04-28T03:53:50.712Z,12.00
2019-04-28T03:54:50.865Z,12.00
2019-04-28T03:55:51.359Z,16.00
2019-04-28T03:56:50.213Z,16.00
2019-04-28T03:57:51.015Z,16.00
2019-04-28T03:58:50.408Z,20.00
2019-04-28T03:59:51.119Z,20.00
2019-04-28T04:00:50.692Z,24.00
2019-04-28T04:01:56.634Z,28.00
2019-04-28T04:02:50.741Z,32.00
2019-04-28T04:03:51.459Z,36.00
2019-04-28T04:04:49.105Z,40.00
2019-04-28T04:05:50.860Z,40.00
2019-04-28T04:06:50.906Z,44.00
2019-04-28T04:07:50.685Z,52.00
2019-04-28T04:08:50.601Z,52.00
2019-04-28T04:09:51.485Z,60.00
2019-04-28T04:10:50.244Z,64.00
2019-04-28T04:11:50.884Z,68.00
2019-04-28T04:12:50.913Z,72.00
2019-04-28T04:13:51.161Z,76.00
2019-04-28T04:14:50.754Z,84.00
2019-04-28T04:15:50.709Z,92.00
2019-04-28T04:16:50.213Z,96.00
2019-04-28T04:17:50.981Z,100.00
2019-04-28T04:18:53.119Z,108.00
2019-04-28T04:19:50.319Z,116.00
2019-04-28T04:20:51.123Z,124.00
2019-04-28T04:21:50.385Z,132.00
2019-04-28T04:22:51.183Z,140.00
2019-04-28T04:23:50.964Z,148.00
2019-04-28T04:24:50.253Z,160.00
2019-04-28T04:25:51.161Z,172.00
2019-04-28T04:26:50.565Z,180.00
2019-04-28T04:27:50.207Z,196.00
2019-04-28T04:28:51.178Z,204.00
2019-04-28T04:29:50.956Z,212.00
2019-04-28T04:30:50.811Z,224.00
2019-04-28T04:31:51.070Z,236.00
2019-04-28T04:32:50.682Z,248.00
2019-04-28T04:33:50.631Z,256.00
2019-04-28T04:34:50.544Z,268.00
2019-04-28T04:35:51.539Z,276.00
2019-04-28T04:36:50.922Z,288.00
2019-04-28T04:37:50.392Z,304.00
2019-04-28T04:38:50.967Z,316.00
2019-04-28T04:39:51.285Z,332.00
2019-04-28T04:40:51.230Z,348.00
2019-04-28T04:41:50.419Z,368.00
2019-04-28T04:42:50.202Z,384.00
2019-04-28T04:43:51.081Z,400.00
2019-04-28T04:44:50.153Z,412.00
2019-04-28T04:45:50.230Z,428.00
2019-04-28T04:46:50.887Z,444.00
2019-04-28T04:47:50.424Z,464.00
2019-04-28T04:48:50.739Z,480.00
2019-04-28T04:49:50.520Z,500.00
2019-04-28T04:50:50.879Z,520.00
2019-04-28T04:51:50.873Z,536.00
2019-04-28T04:52:50.182Z,556.00
2019-04-28T04:53:51.104Z,580.00
2019-04-28T04:54:51.014Z,604.00
2019-04-28T04:55:52.384Z,632.00
2019-04-28T04:56:50.131Z,664.00
2019-04-28T04:57:50.631Z,692.00
2019-04-28T04:58:50.448Z,728.00
2019-04-28T04:59:50.034Z,760.00
2019-04-28T05:00:51.013Z,788.00
2019-04-28T05:01:50.255Z,820.00
2019-04-28T05:02:52.973Z,856.00
2019-04-28T05:03:49.777Z,888.00
2019-04-28T05:04:50.544Z,924.00
2019-04-28T05:05:50.179Z,964.00
2019-04-28T05:06:49.685Z,1000.00
2019-04-28T05:07:50.610Z,1040.00
2019-04-28T05:08:49.885Z,1076.00
2019-04-28T05:09:49.553Z,1128.00
2019-04-28T05:10:49.938Z,1180.00
2019-04-28T05:11:49.949Z,1236.00
2019-04-28T05:12:49.898Z,1304.00
2019-04-28T05:13:49.802Z,1380.00
2019-04-28T05:14:49.447Z,1460.00
2019-04-28T05:15:48.739Z,1536.00
2019-04-28T05:16:49.728Z,1608.00
2019-04-28T05:17:50.095Z,1680.00
2019-04-28T05:18:49.892Z,1748.00
2019-04-28T05:19:49.710Z,1812.00
2019-04-28T05:20:50.317Z,1884.00
2019-04-28T05:21:49.833Z,1964.00
2019-04-28T05:22:50.555Z,2056.00
2019-04-28T05:23:49.290Z,2152.00
2019-04-28T05:24:51.147Z,2264.00
2019-04-28T05:25:49.739Z,2380.00
2019-04-28T05:26:49.595Z,2480.00
2019-04-28T05:27:50.035Z,2572.00
2019-04-28T05:28:51.564Z,2664.00
2019-04-28T05:29:51.137Z,2740.00
2019-04-28T05:30:50.197Z,2808.00
2019-04-28T05:31:50.252Z,2868.00
2019-04-28T05:32:55.580Z,2940.00
2019-04-28T05:33:49.852Z,3024.00
2019-04-28T05:34:50.625Z,3132.00
2019-04-28T05:35:50.091Z,3280.00
2019-04-28T05:36:50.377Z,3456.00
2019-04-28T05:37:49.434Z,3636.00
2019-04-28T05:38:49.657Z,3824.00
2019-04-28T05:39:49.684Z,3984.00
2019-04-28T05:40:49.822Z,4092.00
2019-04-28T05:41:50.241Z,4156.00
2019-04-28T05:42:49.703Z,4196.00
2019-04-28T05:43:50.382Z,4184.00
2019-04-28T05:44:49.668Z,4100.00
2019-04-28T05:45:49.874Z,4036.00
2019-04-28T05:46:50.352Z,4004.00
2019-04-28T05:47:50.121Z,3992.00
2019-04-28T05:48:49.457Z,4012.00
2019-04-28T05:49:49.601Z,4084.00
2019-04-28T05:50:50.040Z,4204.00
2019-04-28T05:51:50.369Z,4352.00
2019-04-28T05:52:50.129Z,4492.00
2019-04-28T05:53:50.617Z,4620.00
2019-04-28T05:54:49.636Z,4696.00
2019-04-28T05:55:50.164Z,4736.00
2019-04-28T05:56:49.593Z,4800.00
2019-04-28T05:57:51.556Z,4884.00
2019-04-28T05:58:50.345Z,4968.00
2019-04-28T05:59:50.001Z,5028.00
2019-04-28T06:00:49.886Z,5092.00
2019-04-28T06:01:50.468Z,5152.00
2019-04-28T06:02:56.547Z,5196.00
2019-04-28T06:03:49.676Z,5232.00
2019-04-28T06:04:49.445Z,5224.00
2019-04-28T06:05:49.704Z,5172.00
2019-04-28T06:06:49.436Z,5044.00
2019-04-28T06:07:49.365Z,4832.00
2019-04-28T06:08:50.846Z,4612.00
2019-04-28T06:09:50.018Z,4400.00
2019-04-28T06:10:49.860Z,4188.00
2019-04-28T06:11:49.576Z,4008.00
2019-04-28T06:12:49.591Z,3852.00
2019-04-28T06:13:50.081Z,3748.00
2019-04-28T06:14:50.234Z,3672.00
2019-04-28T06:15:49.675Z,3624.00
2019-04-28T06:16:50.598Z,3588.00
2019-04-28T06:17:49.828Z,3564.00
2019-04-28T06:18:50.071Z,3560.00
2019-04-28T06:19:50.257Z,3576.00
2019-04-28T06:20:49.780Z,3616.00
2019-04-28T06:21:48.426Z,3680.00
2019-04-28T06:22:48.423Z,3748.00
2019-04-28T06:23:48.418Z,3840.00
2019-04-28T06:24:48.413Z,3940.00
2019-04-28T06:25:48.408Z,4056.00
2019-04-28T06:26:48.406Z,4188.00
2019-04-28T06:27:48.401Z,4308.00
2019-04-28T06:28:48.395Z,4420.00
2019-04-28T06:29:48.391Z,4532.00
2019-04-28T06:30:48.387Z,4668.00
2019-04-28T06:31:48.382Z,4832.00
2019-04-28T06:32:48.378Z,5028.00
2019-04-28T06:33:48.373Z,5256.00
2019-04-28T06:34:48.371Z,5488.00
2019-04-28T06:35:48.366Z,5720.00
2019-04-28T06:36:48.360Z,5976.00
2019-04-28T06:37:48.358Z,6248.00
2019-04-28T06:38:48.356Z,6524.00
2019-04-28T06:39:48.350Z,6780.00
2019-04-28T06:40:48.345Z,6992.00
2019-04-28T06:41:48.340Z,7196.00
2019-04-28T06:42:48.337Z,7436.00
2019-04-28T06:43:48.333Z,7692.00
2019-04-28T06:44:48.329Z,7896.00
2019-04-28T06:45:48.324Z,8032.00
2019-04-28T06:46:48.323Z,8188.00
2019-04-28T06:47:48.317Z,8392.00
2019-04-28T06:48:48.312Z,8516.00
2019-04-28T06:49:48.307Z,8648.00
2019-04-28T06:50:48.305Z,8760.00
2019-04-28T06:51:48.301Z,9072.00
2019-04-28T06:52:48.296Z,9336.00
2019-04-28T06:53:48.292Z,9232.00
2019-04-28T06:54:48.290Z,8920.00
2019-04-28T06:55:48.284Z,9068.00
2019-04-28T06:56:48.281Z,9064.00
2019-04-28T06:57:48.278Z,9012.00
2019-04-28T06:58:58.401Z,8804.00
2019-04-28T06:59:48.273Z,8872.00
2019-04-28T07:00:48.267Z,9256.00
2019-04-28T07:01:48.265Z,9012.00
2019-04-28T07:02:48.260Z,8700.00
2019-04-28T07:03:48.255Z,7936.00
2019-04-28T07:04:48.250Z,8056.00
2019-04-28T07:05:48.248Z,8828.00
2019-04-28T07:06:48.243Z,9588.00
2019-04-28T07:07:48.241Z,10272.00
2019-04-28T07:08:48.237Z,10756.00
2019-04-28T07:09:48.237Z,10532.00
2019-04-28T07:10:48.231Z,10208.00
2019-04-28T07:11:48.227Z,10232.00
2019-04-28T07:12:48.223Z,10204.00
2019-04-28T07:13:48.220Z,9976.00
2019-04-28T07:14:48.216Z,9952.00
2019-04-28T07:15:48.213Z,10176.00
2019-04-28T07:16:48.209Z,9836.00
2019-04-28T07:17:48.211Z,10272.00
2019-04-28T07:18:48.202Z,10064.00
2019-04-28T07:19:48.200Z,9952.00
2019-04-28T07:20:48.197Z,9912.00
2019-04-28T07:21:48.192Z,9692.00
2019-04-28T07:22:48.190Z,9096.00
2019-04-28T07:23:48.187Z,9428.00
2019-04-28T07:24:48.182Z,9444.00
2019-04-28T07:25:48.178Z,8788.00
2019-04-28T07:26:48.177Z,10696.00
2019-04-28T07:27:48.178Z,11168.00
2019-04-28T07:28:48.171Z,11516.00
2019-04-28T07:29:48.166Z,12000.00
2019-04-28T07:30:48.164Z,12008.00
2019-04-28T07:31:48.161Z,11276.00
2019-04-28T07:32:48.156Z,10996.00
2019-04-28T07:33:48.158Z,10420.00
2019-04-28T07:34:48.152Z,9048.00
2019-04-28T07:35:48.149Z,8928.00
2019-04-28T07:36:48.144Z,11080.00
2019-04-28T07:37:48.141Z,10000.00
2019-04-28T07:38:48.139Z,10160.00
2019-04-28T07:39:48.137Z,10224.00
2019-04-28T07:40:48.133Z,9304.00
2019-04-28T07:41:48.130Z,11344.00
2019-04-28T07:42:48.127Z,11928.00
2019-04-28T07:43:48.127Z,9820.00
2019-04-28T07:44:48.122Z,9740.00
2019-04-28T07:45:48.117Z,11948.00
2019-04-28T07:46:48.120Z,12216.00
2019-04-28T07:47:48.114Z,11880.00
2019-04-28T07:48:48.110Z,11212.00
2019-04-28T07:49:48.108Z,10840.00
2019-04-28T07:50:48.104Z,8736.00
2019-04-28T07:51:48.102Z,8688.00
2019-04-28T07:52:48.098Z,10780.00
2019-04-28T07:53:48.096Z,11420.00
2019-04-28T07:54:48.094Z,12580.00
2019-04-28T07:55:48.091Z,12524.00
2019-04-28T07:56:48.089Z,11132.00
2019-04-28T07:57:48.085Z,12408.00
2019-04-28T07:58:48.084Z,14872.00
2019-04-28T07:59:48.081Z,13332.00
2019-04-28T08:00:48.866Z,12768.00
2019-04-28T08:01:48.078Z,13908.00
2019-04-28T08:02:48.074Z,10364.00
2019-04-28T08:03:49.762Z,12848.00
2019-04-28T08:04:48.070Z,28192.00
2019-04-28T08:05:48.066Z,15692.00
2019-04-28T08:06:48.065Z,38400.00
2019-04-28T08:07:48.062Z,47552.00
2019-04-28T08:08:48.059Z,15668.00
2019-04-28T08:09:48.058Z,47840.00
2019-04-28T08:10:48.056Z,47616.00
2019-04-28T08:11:48.056Z,47104.00
2019-04-28T08:12:49.217Z,44768.00
2019-04-28T08:13:48.065Z,46464.00
2019-04-28T08:14:48.050Z,47264.00
2019-04-28T08:15:48.050Z,47648.00
2019-04-28T08:16:48.048Z,50528.00
2019-04-28T08:17:48.056Z,52288.00
2019-04-28T08:18:48.047Z,53088.00
2019-04-28T08:19:48.049Z,38720.00
2019-04-28T08:20:48.053Z,53792.00
2019-04-28T08:21:48.049Z,52640.00
2019-04-28T08:22:48.053Z,55008.00
2019-04-28T08:23:48.050Z,58144.00
2019-04-28T08:24:48.050Z,58688.00
2019-04-28T08:25:48.053Z,58880.00
2019-04-28T08:26:48.054Z,57920.00
2019-04-28T08:27:48.056Z,51104.00
2019-04-28T08:28:48.056Z,55552.00
2019-04-28T08:29:58.009Z,63008.00
2019-04-28T08:30:48.062Z,62112.00
2019-04-28T08:31:48.066Z,60640.00
2019-04-28T08:32:48.068Z,62208.00
2019-04-28T08:33:48.070Z,60416.00
2019-04-28T08:34:48.075Z,56896.00
2019-04-28T08:35:48.079Z,53728.00
2019-04-28T08:36:48.082Z,47808.00
2019-04-28T08:37:48.087Z,45056.00
2019-04-28T08:38:48.091Z,49504.00
2019-04-28T08:39:48.095Z,46880.00
2019-04-28T08:40:48.099Z,43552.00
2019-04-28T08:41:48.103Z,42880.00
2019-04-28T08:42:48.109Z,41728.00
2019-04-28T08:43:48.113Z,37184.00
2019-04-28T08:44:48.116Z,34048.00
2019-04-28T08:45:48.121Z,31008.00
2019-04-28T08:46:48.126Z,28288.00
2019-04-28T08:47:48.131Z,18432.00
2019-04-28T08:48:48.135Z,12520.00
2019-04-28T08:49:48.139Z,13332.00
2019-04-28T08:50:48.144Z,12756.00
2019-04-28T08:51:48.149Z,11960.00
2019-04-28T08:52:48.152Z,10384.00
2019-04-28T08:53:48.156Z,10344.00
2019-04-28T08:54:48.163Z,10508.00
2019-04-28T08:55:48.165Z,10772.00
2019-04-28T08:56:48.167Z,9276.00
2019-04-28T08:57:48.171Z,8048.00
2019-04-28T08:58:48.174Z,8028.00
2019-04-28T08:59:48.177Z,12800.00
2019-04-28T09:00:48.178Z,9124.00
2019-04-28T09:01:48.183Z,8936.00
2019-04-28T09:02:48.183Z,8604.00
2019-04-28T09:03:48.190Z,10564.00
2019-04-28T09:04:48.188Z,10760.00
2019-04-28T09:05:48.190Z,15404.00
2019-04-28T09:06:48.192Z,12848.00
2019-04-28T09:07:48.196Z,10840.00
2019-04-28T09:08:48.197Z,13000.00
2019-04-28T09:09:48.197Z,13092.00
2019-04-28T09:10:48.198Z,17792.00
2019-04-28T09:11:48.199Z,15404.00
2019-04-28T09:12:48.242Z,15420.00
2019-04-28T09:13:48.201Z,18656.00
2019-04-28T09:14:48.202Z,13828.00
2019-04-28T09:15:48.205Z,12700.00
2019-04-28T09:16:48.202Z,12148.00
2019-04-28T09:17:48.204Z,13812.00
2019-04-28T09:18:48.206Z,15404.00
2019-04-28T09:19:48.207Z,17568.00
2019-04-28T09:20:48.206Z,16640.00
2019-04-28T09:21:48.208Z,16288.00
2019-04-28T09:22:48.209Z,12456.00
2019-04-28T09:23:48.209Z,11456.00
2019-04-28T09:24:48.211Z,11560.00
2019-04-28T09:25:48.211Z,11216.00
2019-04-28T09:26:48.210Z,10600.00
2019-04-28T09:27:48.214Z,11244.00
2019-04-28T09:28:48.213Z,11736.00
2019-04-28T09:29:48.214Z,12084.00
2019-04-28T09:30:48.215Z,12824.00
2019-04-28T09:31:48.214Z,15036.00
2019-04-28T09:32:48.218Z,14952.00
2019-04-28T09:33:48.216Z,15944.00
2019-04-28T09:34:48.218Z,17568.00
2019-04-28T09:35:48.219Z,13484.00
2019-04-28T09:36:48.218Z,15660.00
2019-04-28T09:37:48.220Z,17696.00
2019-04-28T09:38:48.224Z,17984.00
2019-04-28T09:39:48.222Z,13284.00
2019-04-28T09:40:48.223Z,11680.00
2019-04-28T09:41:48.223Z,10812.00
2019-04-28T09:42:48.224Z,10148.00
2019-04-28T09:43:48.226Z,9340.00
2019-04-28T09:44:48.227Z,8428.00
2019-04-28T09:45:48.227Z,7476.00
2019-04-28T09:46:48.230Z,6884.00
2019-04-28T09:47:48.229Z,7524.00
2019-04-28T09:48:48.231Z,15904.00
2019-04-28T09:49:48.231Z,12468.00
2019-04-28T09:50:48.232Z,13096.00
2019-04-28T09:51:48.234Z,12148.00
2019-04-28T09:52:48.841Z,11948.00
2019-04-28T09:53:48.232Z,11548.00
2019-04-28T09:54:48.233Z,11028.00
2019-04-28T09:55:48.235Z,10528.00
2019-04-28T09:56:56.386Z,10284.00
2019-04-28T09:57:48.237Z,10228.00
2019-04-28T09:58:48.244Z,9968.00
2019-04-28T09:59:48.237Z,9608.00
2019-04-28T10:00:48.287Z,10148.00
2019-04-28T10:01:48.238Z,10832.00
2019-04-28T10:02:48.237Z,10612.00
2019-04-28T10:03:48.249Z,9964.00
2019-04-28T10:04:48.238Z,8912.00
2019-04-28T10:05:48.241Z,7988.00
2019-04-28T10:06:48.239Z,7420.00
2019-04-28T10:07:48.238Z,7020.00
2019-04-28T10:08:48.241Z,6500.00
2019-04-28T10:09:48.241Z,5808.00
2019-04-28T10:10:48.242Z,5080.00
2019-04-28T10:11:48.241Z,4436.00
2019-04-28T10:12:48.243Z,3872.00
2019-04-28T10:13:48.240Z,3376.00
2019-04-28T10:14:48.241Z,2992.00
2019-04-28T10:15:48.242Z,2696.00
2019-04-28T10:16:48.240Z,2460.00
2019-04-28T10:17:48.240Z,2296.00
2019-04-28T10:18:48.239Z,2232.00
2019-04-28T10:19:48.242Z,2296.00
2019-04-28T10:20:48.237Z,2428.00
2019-04-28T10:21:48.237Z,2584.00
2019-04-28T10:22:48.271Z,2760.00
2019-04-28T10:23:48.236Z,2956.00
2019-04-28T10:24:48.245Z,3164.00
2019-04-28T10:25:48.236Z,3324.00
2019-04-28T10:26:48.235Z,3576.00
2019-04-28T10:27:48.234Z,3868.00
2019-04-28T10:28:48.231Z,4140.00
2019-04-28T10:29:48.231Z,4384.00
2019-04-28T10:30:48.230Z,4700.00
2019-04-28T10:31:48.229Z,5092.00
2019-04-28T10:32:48.228Z,5408.00
2019-04-28T10:33:48.228Z,5636.00
2019-04-28T10:34:54.645Z,5924.00
2019-04-28T10:35:48.228Z,6164.00
2019-04-28T10:36:48.224Z,6376.00
2019-04-28T10:37:48.223Z,6620.00
2019-04-28T10:38:48.221Z,6868.00
2019-04-28T10:39:48.223Z,7036.00
2019-04-28T10:40:48.219Z,7204.00
2019-04-28T10:41:48.219Z,7332.00
2019-04-28T10:42:48.217Z,7412.00
2019-04-28T10:43:48.217Z,7368.00
2019-04-28T10:44:48.216Z,7352.00
2019-04-28T10:45:48.219Z,7384.00
2019-04-28T10:46:48.213Z,7532.00
2019-04-28T10:47:48.212Z,7752.00
2019-04-28T10:48:48.211Z,7992.00
2019-04-28T10:49:48.210Z,8392.00
2019-04-28T10:50:48.212Z,8836.00
2019-04-28T10:51:58.746Z,9232.00
2019-04-28T10:52:48.206Z,9540.00
2019-04-28T10:53:48.205Z,9760.00
2019-04-28T10:54:48.204Z,9872.00
2019-04-28T10:55:48.202Z,9992.00
2019-04-28T10:56:48.202Z,10048.00
2019-04-28T10:57:48.202Z,10108.00
2019-04-28T10:58:48.200Z,10192.00
2019-04-28T10:59:48.199Z,10280.00
2019-04-28T11:00:48.197Z,10252.00
2019-04-28T11:01:48.197Z,9996.00
2019-04-28T11:02:48.196Z,9988.00
2019-04-28T11:03:48.195Z,10016.00
2019-04-28T11:04:48.191Z,9888.00
2019-04-28T11:05:48.197Z,9976.00
2019-04-28T11:06:48.192Z,10264.00
2019-04-28T11:07:48.190Z,10460.00
2019-04-28T11:08:48.190Z,10460.00
2019-04-28T11:09:48.194Z,10388.00
2019-04-28T11:10:48.197Z,10276.00
2019-04-28T11:11:48.187Z,10160.00
2019-04-28T11:12:48.187Z,10080.00
2019-04-28T11:13:48.187Z,10024.00
2019-04-28T11:14:48.187Z,9964.00
2019-04-28T11:15:48.187Z,9936.00
2019-04-28T11:16:48.191Z,9952.00
2019-04-28T11:17:48.190Z,10088.00
2019-04-28T11:18:48.184Z,10228.00
2019-04-28T11:19:48.184Z,10276.00
2019-04-28T11:20:48.182Z,10260.00
2019-04-28T11:21:48.183Z,10360.00
2019-04-28T11:22:48.182Z,10316.00
2019-04-28T11:23:48.183Z,10228.00
2019-04-28T11:24:48.181Z,10140.00
2019-04-28T11:25:48.182Z,10092.00
2019-04-28T11:26:48.180Z,10152.00
2019-04-28T11:27:48.181Z,10268.00
2019-04-28T11:28:48.180Z,10276.00
2019-04-28T11:29:48.180Z,10192.00
2019-04-28T11:30:48.180Z,10316.00
2019-04-28T11:31:48.180Z,10424.00
2019-04-28T11:32:48.180Z,10436.00
2019-04-28T11:33:48.180Z,10408.00
2019-04-28T11:34:48.180Z,10332.00
2019-04-28T11:35:48.179Z,9944.00
2019-04-28T11:36:48.177Z,9568.00
2019-04-28T11:37:48.185Z,9156.00
2019-04-28T11:38:48.179Z,8564.00
2019-04-28T11:39:48.179Z,7900.00
2019-04-28T11:40:48.181Z,7240.00
2019-04-28T11:41:48.178Z,6712.00
2019-04-28T11:42:48.179Z,6116.00
2019-04-28T11:43:48.180Z,5476.00
2019-04-28T11:44:48.179Z,5040.00
2019-04-28T11:45:48.177Z,4776.00
2019-04-28T11:46:48.177Z,4492.00
2019-04-28T11:47:48.180Z,4304.00
2019-04-28T11:48:48.178Z,4100.00
2019-04-28T11:49:48.177Z,3840.00
2019-04-28T11:50:48.187Z,3616.00
2019-04-28T11:51:48.177Z,3504.00
2019-04-28T11:52:48.176Z,3432.00
2019-04-28T11:53:48.177Z,3384.00
2019-04-28T11:54:48.176Z,3540.00
2019-04-28T11:55:48.175Z,3768.00
2019-04-28T11:56:48.175Z,3928.00
2019-04-28T11:57:48.175Z,4004.00
2019-04-28T11:58:48.174Z,4024.00
2019-04-28T11:59:48.175Z,4040.00
2019-04-28T12:00:48.172Z,4164.00
2019-04-28T12:01:48.172Z,4560.00
2019-04-28T12:02:48.172Z,5000.00
2019-04-28T12:03:48.172Z,5436.00
2019-04-28T12:04:48.169Z,5828.00
2019-04-28T12:05:48.180Z,6152.00
2019-04-28T12:06:48.169Z,6468.00
2019-04-28T12:07:48.167Z,6760.00
2019-04-28T12:08:48.167Z,6912.00
2019-04-28T12:09:48.165Z,6860.00
2019-04-28T12:10:48.165Z,6700.00
2019-04-28T12:11:48.165Z,6564.00
2019-04-28T12:12:48.164Z,6552.00
2019-04-28T12:13:48.164Z,6780.00
2019-04-28T12:14:48.161Z,7260.00
2019-04-28T12:15:48.162Z,7848.00
2019-04-28T12:16:48.160Z,8328.00
2019-04-28T12:17:48.158Z,8800.00
2019-04-28T12:18:48.157Z,9268.00
2019-04-28T12:19:48.156Z,9552.00
2019-04-28T12:20:48.155Z,9784.00
2019-04-28T12:21:48.154Z,10008.00
2019-04-28T12:22:48.152Z,10140.00
2019-04-28T12:23:48.153Z,10228.00
2019-04-28T12:24:48.152Z,10184.00